Minneapolis, Minnesota
Traffic Map
Current Weather Conditions
Minneapolis, Minnesota
Broken Clouds
Broken Clouds
67°
Feels Like: 67°
Wind Chill: 67° Ceiling: 2600
Heat Index: 67° Visibility: 10mi
Dew Point: 59° Wind: 6mph
Humidity: 76% Direction: 210° (SSW)
Pressure: 29.82in Gusts: 0mph
Raw Report DataKMSP 241053Z 21005KT 10SM BKN026 BKN031 BKN190 19/15 A2982 RMK AO2 SLP094 T01940150 $
Traffic Incident Summary
Active as of:
Severity:
Category:
InformationThere was an issue retrieving the traffic information for this location. Please try a different location or try again shortly.
Advertisements
Track Severe Weather on mobile